Time;durP1;ratioP1;P1;durP2;ratioP2;P2;SDS_P1;SDS_P2;PMS_P1;PMS_P2;Temp;Humidity;BMP_temperature;BMP_pressure;BME280_temperature;BME280_humidity;BME280_pressure;Samples;Min_cycle;Max_cycle;Signal;HPM_P1;HPM_P2
2024/01/28 00:01:17;;;;;;;;;;;1.70;99.90;;;;;;5109923;28;19924;-32
2024/01/28 00:03:44;;;;;;;;;;;1.70;99.90;;;;;;5113895;28;20092;-31
2024/01/28 00:06:10;;;;;;;;;;;1.80;99.90;;;;;;5114252;28;20345;-31
2024/01/28 00:08:37;;;;;;;;;;;1.70;99.90;;;;;;5114342;28;20380;-31
2024/01/28 00:11:05;;;;;;;;;;;1.60;99.90;;;;;;5114582;28;20393;-31
2024/01/28 00:13:34;;;;;;;;;;;1.60;99.90;;;;;;5113090;28;20324;-31
2024/01/28 00:16:00;;;;;;;;;;;1.70;99.90;;;;;;5099014;28;19925;-31
2024/01/28 00:18:27;;;;;;;;;;;1.60;99.90;;;;;;5081900;28;20032;-31
2024/01/28 00:20:54;;;;;;;;;;;1.60;99.90;;;;;;5107584;28;19970;-31
2024/01/28 00:23:20;;;;;;;;;;;1.70;99.90;;;;;;5105822;28;19969;-31
2024/01/28 00:25:47;;;;;;;;;;;1.60;99.90;;;;;;5112111;28;19967;-31
2024/01/28 00:28:15;;;;;;;;;;;1.60;99.90;;;;;;5112966;28;19927;-31
2024/01/28 00:30:42;;;;;;;;;;;1.50;99.90;;;;;;5112980;28;19931;-33
2024/01/28 00:33:08;;;;;;;;;;;1.60;99.90;;;;;;5113443;28;19973;-31
2024/01/28 00:35:35;;;;;;;;;;;1.60;99.90;;;;;;5115266;28;20323;-31
2024/01/28 00:38:02;;;;;;;;;;;1.60;99.90;;;;;;5113454;28;20412;-31
2024/01/28 00:40:29;;;;;;;;;;;1.60;99.90;;;;;;5113121;28;19923;-31
2024/01/28 00:42:56;;;;;;;;;;;1.60;99.90;;;;;;5113420;28;20530;-31
2024/01/28 00:45:23;;;;;;;;;;;1.60;99.90;;;;;;5132218;27;19976;-31
2024/01/28 00:47:50;;;;;;;;;;;1.60;99.90;;;;;;5113278;27;19925;-32
2024/01/28 00:50:17;;;;;;;;;;;1.60;99.90;;;;;;5112922;28;19928;-33
2024/01/28 00:52:44;;;;;;;;;;;1.60;99.90;;;;;;5112629;28;19924;-32
2024/01/28 00:55:10;;;;;;;;;;;1.60;99.90;;;;;;5114180;28;19924;-32
2024/01/28 00:57:37;;;;;;;;;;;1.60;99.90;;;;;;5112154;28;19932;-31
2024/01/28 01:00:04;;;;;;;;;;;1.70;99.90;;;;;;5113778;28;19928;-31
2024/01/28 01:02:32;;;;;;;;;;;1.70;99.90;;;;;;5113110;28;20414;-32
2024/01/28 01:04:59;;;;;;;;;;;1.60;99.90;;;;;;5114176;27;20227;-31
2024/01/28 01:07:26;;;;;;;;;;;1.70;99.90;;;;;;5112286;28;19949;-33
2024/01/28 01:09:52;;;;;;;;;;;1.60;99.90;;;;;;5112705;28;19977;-31
2024/01/28 01:12:19;;;;;;;;;;;1.70;99.90;;;;;;5113018;28;19924;-32
2024/01/28 01:14:45;;;;;;;;;;;1.70;99.90;;;;;;5111990;28;19928;-31
2024/01/28 01:17:12;;;;;;;;;;;1.70;99.90;;;;;;5113655;28;19924;-33
2024/01/28 01:19:40;;;;;;;;;;;1.60;99.90;;;;;;5112425;28;19924;-32
2024/01/28 01:22:07;;;;;;;;;;;1.70;99.90;;;;;;5113689;28;19976;-32
2024/01/28 01:24:33;;;;;;;;;;;1.70;99.90;;;;;;5111995;28;19993;-31
2024/01/28 01:27:00;;;;;;;;;;;1.70;99.90;;;;;;5110723;28;19924;-32
2024/01/28 01:29:27;;;;;;;;;;;1.60;99.90;;;;;;5092214;28;20399;-32
2024/01/28 01:31:54;;;;;;;;;;;1.70;99.90;;;;;;5096286;28;19924;-32
2024/01/28 01:34:21;;;;;;;;;;;1.70;99.90;;;;;;5095670;28;19977;-32
2024/01/28 01:36:49;;;;;;;;;;;1.70;99.90;;;;;;5113059;27;19927;-31
2024/01/28 01:39:16;;;;;;;;;;;1.70;99.90;;;;;;5111758;28;19969;-32
2024/01/28 01:41:43;;;;;;;;;;;1.80;99.90;;;;;;5094148;28;19930;-32
2024/01/28 01:44:10;;;;;;;;;;;1.80;99.90;;;;;;5094379;28;19931;-32
2024/01/28 01:46:37;;;;;;;;;;;1.80;99.90;;;;;;5099771;27;19927;-32
2024/01/28 01:49:04;;;;;;;;;;;1.80;99.90;;;;;;5094968;27;19977;-31
2024/01/28 01:51:30;;;;;;;;;;;1.90;99.90;;;;;;5087806;28;19924;-34
2024/01/28 01:53:58;;;;;;;;;;;1.90;99.90;;;;;;5092390;28;19928;-30
2024/01/28 01:56:25;;;;;;;;;;;1.90;99.90;;;;;;5094315;28;19973;-31
2024/01/28 01:58:53;;;;;;;;;;;1.90;99.90;;;;;;5108884;27;19924;-32
2024/01/28 02:01:19;;;;;;;;;;;1.90;99.90;;;;;;5093122;27;19927;-32
2024/01/28 02:03:46;;;;;;;;;;;1.90;99.90;;;;;;5093459;28;19924;-31
2024/01/28 02:06:14;;;;;;;;;;;1.90;99.90;;;;;;5094211;28;19923;-32
2024/01/28 02:08:40;;;;;;;;;;;2.00;99.90;;;;;;5093563;28;19928;-31
2024/01/28 02:14:24;;;;;;;;;;;1.90;99.90;;;;;;5093846;28;19924;-32
2024/01/28 02:16:50;;;;;;;;;;;1.90;99.90;;;;;;5094271;28;19977;-32
2024/01/28 02:19:17;;;;;;;;;;;1.80;99.90;;;;;;5095741;28;19924;-32
2024/01/28 02:21:44;;;;;;;;;;;1.80;99.90;;;;;;5112413;27;20338;-32
2024/01/28 02:24:13;;;;;;;;;;;1.90;99.90;;;;;;5094158;28;19924;-31
2024/01/28 02:26:40;;;;;;;;;;;1.80;99.90;;;;;;5094382;28;19971;-31
2024/01/28 02:29:06;;;;;;;;;;;1.90;99.90;;;;;;5094186;28;19923;-33
2024/01/28 02:31:33;;;;;;;;;;;1.80;99.90;;;;;;5095127;28;19959;-32
2024/01/28 02:34:00;;;;;;;;;;;1.80;99.90;;;;;;5093977;28;19923;-32
2024/01/28 02:36:27;;;;;;;;;;;1.90;99.90;;;;;;5111470;28;19927;-32
2024/01/28 02:38:55;;;;;;;;;;;1.90;99.90;;;;;;5094373;28;19924;-31
2024/01/28 02:41:23;;;;;;;;;;;1.90;99.90;;;;;;5092794;28;19924;-31
2024/01/28 02:43:49;;;;;;;;;;;1.90;99.90;;;;;;5087622;28;20421;-32
2024/01/28 02:46:16;;;;;;;;;;;1.90;99.90;;;;;;5112173;28;19923;-32
2024/01/28 02:48:43;;;;;;;;;;;1.90;99.90;;;;;;5112124;28;20020;-32
2024/01/28 02:51:09;;;;;;;;;;;1.90;99.90;;;;;;5093954;28;19928;-32
2024/01/28 02:53:36;;;;;;;;;;;1.90;99.90;;;;;;5111400;28;19924;-32
2024/01/28 02:56:03;;;;;;;;;;;2.00;99.90;;;;;;5093417;28;19985;-32
2024/01/28 02:58:31;;;;;;;;;;;2.00;99.90;;;;;;5094647;28;19924;-32
2024/01/28 03:00:57;;;;;;;;;;;1.90;99.90;;;;;;5093998;28;19945;-32
2024/01/28 03:06:36;;;;;;;;;;;2.00;99.90;;;;;;5093515;28;19924;-34
2024/01/28 03:09:04;;;;;;;;;;;2.10;99.90;;;;;;5104633;28;20277;-32
2024/01/28 03:11:31;;;;;;;;;;;2.00;99.90;;;;;;5100712;28;19928;-32
2024/01/28 03:13:59;;;;;;;;;;;2.10;99.90;;;;;;5092101;28;19924;-31
2024/01/28 03:16:25;;;;;;;;;;;2.10;99.90;;;;;;5081280;28;19924;-33
2024/01/28 03:18:52;;;;;;;;;;;2.10;99.90;;;;;;5081628;28;19924;-32
2024/01/28 03:21:19;;;;;;;;;;;2.10;99.90;;;;;;5093486;28;20372;-31
2024/01/28 03:23:46;;;;;;;;;;;2.10;99.90;;;;;;5111021;28;19924;-33
2024/01/28 03:26:13;;;;;;;;;;;2.10;99.90;;;;;;5093588;28;19959;-32
2024/01/28 03:28:39;;;;;;;;;;;2.10;99.90;;;;;;5081757;28;19958;-33
2024/01/28 03:31:07;;;;;;;;;;;2.10;99.90;;;;;;5083617;28;19977;-32
2024/01/28 03:33:34;;;;;;;;;;;2.10;99.90;;;;;;5111814;28;19976;-33
2024/01/28 03:36:01;;;;;;;;;;;2.10;99.90;;;;;;5097140;28;19953;-32
2024/01/28 03:38:28;;;;;;;;;;;2.10;99.90;;;;;;5098567;28;19951;-32
2024/01/28 03:40:54;;;;;;;;;;;2.10;99.90;;;;;;5098125;28;19967;-33
2024/01/28 03:43:21;;;;;;;;;;;2.10;99.90;;;;;;5113429;28;20198;-31
2024/01/28 03:45:48;;;;;;;;;;;2.10;99.90;;;;;;5097324;28;20283;-32
2024/01/28 03:48:16;;;;;;;;;;;2.10;99.90;;;;;;5115715;28;20284;-32
2024/01/28 03:50:43;;;;;;;;;;;2.10;99.90;;;;;;5097518;28;20399;-34
2024/01/28 03:53:09;;;;;;;;;;;2.10;99.90;;;;;;5092359;28;19935;-33
2024/01/28 03:55:36;;;;;;;;;;;2.10;99.90;;;;;;5113583;28;19927;-32
2024/01/28 03:58:02;;;;;;;;;;;2.00;99.90;;;;;;5114748;28;20314;-32
2024/01/28 04:00:29;;;;;;;;;;;2.00;99.90;;;;;;5095727;28;19981;-32
2024/01/28 04:02:56;;;;;;;;;;;2.10;99.90;;;;;;5077836;28;20364;-33
2024/01/28 04:05:24;;;;;;;;;;;2.00;99.90;;;;;;5112756;28;19932;-32
2024/01/28 04:07:51;;;;;;;;;;;2.00;99.90;;;;;;5097557;28;19928;-32
2024/01/28 04:10:17;;;;;;;;;;;2.00;99.90;;;;;;5097163;28;19924;-31
2024/01/28 04:12:44;;;;;;;;;;;2.00;99.90;;;;;;5113519;28;19940;-34
2024/01/28 04:15:11;;;;;;;;;;;1.90;99.90;;;;;;5096809;28;20375;-30
2024/01/28 04:17:38;;;;;;;;;;;1.90;99.90;;;;;;5115264;28;19974;-32
2024/01/28 04:20:05;;;;;;;;;;;1.90;99.90;;;;;;5114891;28;19932;-32
2024/01/28 04:22:33;;;;;;;;;;;1.90;99.90;;;;;;5097371;28;19924;-33
2024/01/28 04:24:59;;;;;;;;;;;1.80;99.90;;;;;;5114580;28;19981;-31
2024/01/28 04:27:26;;;;;;;;;;;1.80;99.90;;;;;;5115001;28;19928;-32
2024/01/28 04:29:53;;;;;;;;;;;1.80;99.90;;;;;;5096739;28;19971;-32
2024/01/28 04:32:20;;;;;;;;;;;1.80;99.90;;;;;;5096768;28;20344;-31
2024/01/28 04:34:46;;;;;;;;;;;1.80;99.90;;;;;;5096949;28;20295;-33
2024/01/28 04:37:13;;;;;;;;;;;1.80;99.90;;;;;;5096258;28;20364;-32
2024/01/28 04:39:41;;;;;;;;;;;1.80;99.90;;;;;;5097131;28;19927;-32
2024/01/28 04:42:08;;;;;;;;;;;1.80;99.90;;;;;;5113600;28;19942;-33
2024/01/28 04:44:34;;;;;;;;;;;1.80;99.90;;;;;;5082625;28;19932;-33
2024/01/28 04:47:02;;;;;;;;;;;1.70;99.90;;;;;;5091220;28;19976;-32
2024/01/28 04:49:28;;;;;;;;;;;1.80;99.90;;;;;;5096178;28;19932;-32
2024/01/28 04:51:55;;;;;;;;;;;1.70;99.90;;;;;;5096027;28;20376;-32
2024/01/28 04:54:22;;;;;;;;;;;1.70;99.90;;;;;;5096967;28;20287;-32
2024/01/28 04:56:50;;;;;;;;;;;1.70;99.90;;;;;;5094278;28;19928;-31
2024/01/28 04:59:17;;;;;;;;;;;1.70;99.90;;;;;;5096996;28;20372;-31
2024/01/28 05:01:44;;;;;;;;;;;1.70;99.90;;;;;;5085942;28;19969;-31
2024/01/28 05:04:10;;;;;;;;;;;1.60;99.90;;;;;;5113542;28;20398;-32
2024/01/28 05:06:37;;;;;;;;;;;1.70;99.90;;;;;;5095507;28;19969;-31
2024/01/28 05:09:04;;;;;;;;;;;1.70;99.90;;;;;;5113820;28;19923;-31
2024/01/28 05:11:31;;;;;;;;;;;1.70;99.90;;;;;;5095188;28;19988;-33
2024/01/28 05:13:59;;;;;;;;;;;1.70;99.90;;;;;;5113767;28;19953;-33
2024/01/28 05:16:26;;;;;;;;;;;1.60;99.90;;;;;;5084316;28;19924;-33
2024/01/28 05:18:52;;;;;;;;;;;1.60;99.90;;;;;;5079888;28;20360;-32
2024/01/28 05:21:19;;;;;;;;;;;1.60;99.90;;;;;;5112717;28;19928;-31
2024/01/28 05:23:46;;;;;;;;;;;1.70;99.90;;;;;;5094545;28;19962;-31
2024/01/28 05:26:13;;;;;;;;;;;1.70;99.90;;;;;;5107889;28;19924;-34
2024/01/28 05:28:40;;;;;;;;;;;1.70;99.90;;;;;;5113627;28;19924;-32
2024/01/28 05:31:08;;;;;;;;;;;1.70;99.90;;;;;;5096331;28;19927;-32
2024/01/28 05:33:37;;;;;;;;;;;1.60;99.90;;;;;;5112601;28;19924;-32
2024/01/28 05:36:10;;;;;;;;;;;1.60;99.90;;;;;;5085750;28;19931;-30
2024/01/28 05:38:37;;;;;;;;;;;1.60;99.90;;;;;;5107354;28;19970;-30
2024/01/28 05:41:04;;;;;;;;;;;1.60;99.90;;;;;;5096371;28;19933;-32
2024/01/28 05:43:30;;;;;;;;;;;1.60;99.90;;;;;;5091452;28;20388;-31
2024/01/28 05:45:57;;;;;;;;;;;1.60;99.90;;;;;;5088880;28;19977;-32
2024/01/28 05:48:25;;;;;;;;;;;1.60;99.90;;;;;;5076211;28;20366;-31
2024/01/28 05:50:52;;;;;;;;;;;1.50;99.90;;;;;;5086834;28;19931;-31
2024/01/28 05:53:18;;;;;;;;;;;1.50;99.90;;;;;;5094682;28;19928;-31
2024/01/28 05:55:45;;;;;;;;;;;1.50;99.90;;;;;;5090596;28;20326;-31
2024/01/28 05:58:12;;;;;;;;;;;1.40;99.90;;;;;;5108214;28;20345;-32
2024/01/28 06:00:38;;;;;;;;;;;1.40;99.90;;;;;;5093246;28;19973;-32
2024/01/28 06:03:05;;;;;;;;;;;1.40;99.90;;;;;;5095370;28;19928;-31
2024/01/28 06:05:33;;;;;;;;;;;1.50;99.90;;;;;;5112582;28;19924;-33
2024/01/28 06:08:00;;;;;;;;;;;1.40;99.90;;;;;;5094011;28;19924;-31
2024/01/28 06:10:27;;;;;;;;;;;1.40;99.90;;;;;;5084475;28;19924;-32
2024/01/28 06:12:53;;;;;;;;;;;1.40;99.90;;;;;;5113055;28;20371;-31
2024/01/28 06:15:20;;;;;;;;;;;1.40;99.90;;;;;;5112636;28;20367;-33
2024/01/28 06:17:47;;;;;;;;;;;1.40;99.90;;;;;;5112448;28;19928;-31
2024/01/28 06:20:13;;;;;;;;;;;1.40;99.90;;;;;;5094610;28;20375;-32
2024/01/28 06:22:41;;;;;;;;;;;1.40;99.90;;;;;;5113038;28;19924;-33
2024/01/28 06:25:09;;;;;;;;;;;1.30;99.90;;;;;;5107623;28;19924;-32
2024/01/28 06:27:36;;;;;;;;;;;1.30;99.90;;;;;;5107680;28;19936;-31
2024/01/28 06:30:02;;;;;;;;;;;1.30;99.90;;;;;;5090187;28;19970;-32
2024/01/28 06:32:29;;;;;;;;;;;1.30;99.90;;;;;;5112593;28;19935;-32
2024/01/28 06:34:56;;;;;;;;;;;1.20;99.90;;;;;;5110879;28;19924;-32
2024/01/28 06:37:22;;;;;;;;;;;1.20;99.90;;;;;;5092961;28;19924;-33
2024/01/28 06:39:51;;;;;;;;;;;1.20;99.90;;;;;;5111729;28;19988;-32
2024/01/28 06:42:17;;;;;;;;;;;1.20;99.90;;;;;;5094116;28;19928;-32
2024/01/28 06:44:44;;;;;;;;;;;1.10;99.90;;;;;;5084188;28;19924;-30
2024/01/28 06:47:10;;;;;;;;;;;1.20;99.90;;;;;;5111947;28;20480;-30
2024/01/28 06:49:37;;;;;;;;;;;1.20;99.90;;;;;;5092702;28;20447;-31
2024/01/28 06:52:04;;;;;;;;;;;1.10;99.90;;;;;;5093243;28;20425;-31
2024/01/28 06:54:31;;;;;;;;;;;1.10;99.90;;;;;;5093456;28;19967;-31
2024/01/28 06:56:59;;;;;;;;;;;1.10;99.90;;;;;;5094155;28;19930;-31
2024/01/28 06:59:26;;;;;;;;;;;1.00;99.90;;;;;;5093197;28;19950;-30
2024/01/28 07:01:52;;;;;;;;;;;1.00;99.90;;;;;;5090725;28;19928;-31
2024/01/28 07:04:19;;;;;;;;;;;1.00;99.90;;;;;;5091365;28;19988;-32
2024/01/28 07:06:46;;;;;;;;;;;1.00;99.90;;;;;;5093453;28;19985;-31
2024/01/28 07:09:13;;;;;;;;;;;1.00;99.90;;;;;;5090432;28;19928;-33
2024/01/28 07:11:39;;;;;;;;;;;1.00;99.90;;;;;;5105530;28;19931;-31
2024/01/28 07:14:07;;;;;;;;;;;0.90;99.90;;;;;;5087803;28;19924;-31
2024/01/28 07:16:34;;;;;;;;;;;0.90;99.90;;;;;;5111791;28;20333;-32
2024/01/28 07:19:01;;;;;;;;;;;0.90;99.90;;;;;;5100737;28;19924;-31
2024/01/28 07:21:28;;;;;;;;;;;0.80;99.90;;;;;;5093742;28;19923;-35
2024/01/28 07:23:55;;;;;;;;;;;0.80;99.90;;;;;;5089641;28;19977;-32
2024/01/28 07:26:21;;;;;;;;;;;0.80;99.90;;;;;;5098806;28;19937;-31
2024/01/28 07:28:48;;;;;;;;;;;0.80;99.90;;;;;;5086322;28;19970;-31
2024/01/28 07:31:16;;;;;;;;;;;0.80;99.90;;;;;;5107878;28;19980;-32
2024/01/28 07:33:43;;;;;;;;;;;0.80;99.90;;;;;;5109965;28;19927;-32
2024/01/28 07:36:10;;;;;;;;;;;0.80;99.90;;;;;;5109515;28;19928;-33
2024/01/28 07:38:37;;;;;;;;;;;0.80;99.90;;;;;;5108563;28;20375;-31
2024/01/28 07:41:03;;;;;;;;;;;0.70;99.90;;;;;;5108326;28;19928;-31
2024/01/28 07:43:30;;;;;;;;;;;0.70;99.90;;;;;;5087289;28;19934;-32
2024/01/28 07:45:57;;;;;;;;;;;0.70;99.90;;;;;;5092666;28;19924;-31
2024/01/28 07:48:25;;;;;;;;;;;0.70;99.90;;;;;;5091713;28;19969;-31
2024/01/28 07:50:52;;;;;;;;;;;0.70;99.90;;;;;;5087003;28;19928;-31
2024/01/28 07:53:19;;;;;;;;;;;0.70;99.90;;;;;;5108976;28;20038;-32
2024/01/28 07:55:46;;;;;;;;;;;0.70;99.90;;;;;;5081266;28;20380;-32
2024/01/28 07:58:13;;;;;;;;;;;0.70;99.90;;;;;;4935113;22;22812;-31
2024/01/28 08:00:42;;;;;;;;;;;0.70;99.90;;;;;;5102488;28;20000;-31
2024/01/28 08:03:09;;;;;;;;;;;0.70;99.90;;;;;;5098877;28;19977;-31
2024/01/28 08:05:37;;;;;;;;;;;0.70;99.90;;;;;;5079281;28;19928;-31
2024/01/28 08:08:04;;;;;;;;;;;0.70;99.90;;;;;;5093502;28;19973;-31
2024/01/28 08:10:31;;;;;;;;;;;0.80;99.90;;;;;;5093694;28;20006;-32
2024/01/28 08:12:58;;;;;;;;;;;0.80;99.90;;;;;;5077862;28;19973;-31
2024/01/28 08:15:24;;;;;;;;;;;0.80;99.90;;;;;;5073743;28;19920;-32
2024/01/28 08:17:51;;;;;;;;;;;0.80;99.90;;;;;;5090792;28;20275;-31
2024/01/28 08:20:17;;;;;;;;;;;0.90;99.90;;;;;;5094566;28;20419;-33
2024/01/28 08:22:45;;;;;;;;;;;0.90;99.90;;;;;;5102491;28;19942;-31
2024/01/28 08:25:12;;;;;;;;;;;1.00;99.90;;;;;;5096077;28;19920;-31
2024/01/28 08:27:39;;;;;;;;;;;1.00;99.90;;;;;;5097526;28;19942;-32
2024/01/28 08:30:06;;;;;;;;;;;1.00;99.90;;;;;;5091785;28;19935;-31
2024/01/28 08:32:33;;;;;;;;;;;1.10;99.90;;;;;;5090505;28;19920;-33
2024/01/28 08:34:59;;;;;;;;;;;1.10;99.90;;;;;;5095874;28;20016;-31
2024/01/28 08:37:26;;;;;;;;;;;1.20;99.90;;;;;;5084273;28;20252;-32
2024/01/28 08:39:54;;;;;;;;;;;1.20;99.90;;;;;;5094094;28;19920;-32
2024/01/28 08:42:21;;;;;;;;;;;1.30;99.90;;;;;;5087554;28;19920;-32
2024/01/28 08:44:48;;;;;;;;;;;1.40;99.90;;;;;;5090456;28;19927;-32
2024/01/28 08:47:15;;;;;;;;;;;1.40;99.90;;;;;;5079092;28;19928;-33
2024/01/28 08:49:41;;;;;;;;;;;1.40;99.90;;;;;;5097040;28;20279;-32
2024/01/28 08:52:08;;;;;;;;;;;1.50;99.90;;;;;;5087013;28;19932;-32
2024/01/28 08:54:36;;;;;;;;;;;1.50;99.90;;;;;;5087383;28;19920;-33
2024/01/28 08:57:05;;;;;;;;;;;1.50;99.90;;;;;;5090334;28;19919;-32
2024/01/28 08:59:32;;;;;;;;;;;1.60;99.90;;;;;;5093626;28;19938;-32
2024/01/28 09:01:59;;;;;;;;;;;1.70;99.90;;;;;;5089300;28;19924;-34
2024/01/28 09:04:26;;;;;;;;;;;1.70;99.90;;;;;;5084059;28;20145;-31
2024/01/28 09:06:53;;;;;;;;;;;1.80;99.90;;;;;;5081417;28;20360;-32
2024/01/28 09:09:18;;;;;;;;;;;1.80;99.90;;;;;;5090451;28;19919;-34
2024/01/28 09:11:45;;;;;;;;;;;1.90;99.90;;;;;;5090811;28;19969;-33
2024/01/28 09:14:13;;;;;;;;;;;2.00;99.90;;;;;;5094476;28;20030;-31
2024/01/28 09:16:40;;;;;;;;;;;2.10;99.90;;;;;;5111049;28;19968;-31
2024/01/28 09:19:06;;;;;;;;;;;2.10;99.90;;;;;;5096821;28;19924;-31
2024/01/28 09:21:33;;;;;;;;;;;2.20;99.90;;;;;;5095183;28;19976;-30
2024/01/28 09:23:59;;;;;;;;;;;2.30;99.90;;;;;;5111995;28;19923;-31
2024/01/28 09:26:26;;;;;;;;;;;2.40;99.90;;;;;;5109539;28;19924;-31
2024/01/28 09:28:53;;;;;;;;;;;2.50;99.90;;;;;;5088158;28;19920;-32
2024/01/28 09:31:21;;;;;;;;;;;2.60;99.90;;;;;;5083644;28;20371;-32
2024/01/28 09:33:48;;;;;;;;;;;2.70;99.90;;;;;;5094931;28;20321;-32
2024/01/28 09:36:14;;;;;;;;;;;2.80;99.90;;;;;;5093980;28;20300;-31
2024/01/28 09:38:41;;;;;;;;;;;2.90;99.90;;;;;;5112927;28;20424;-31
2024/01/28 09:41:09;;;;;;;;;;;3.00;99.90;;;;;;5093410;28;19959;-32
2024/01/28 09:43:39;;;;;;;;;;;3.00;99.90;;;;;;5091432;28;20357;-32
2024/01/28 09:46:06;;;;;;;;;;;3.10;99.90;;;;;;5085581;28;20007;-32
2024/01/28 09:48:34;;;;;;;;;;;3.20;99.90;;;;;;5092123;28;19963;-34
2024/01/28 09:51:01;;;;;;;;;;;3.30;99.90;;;;;;5092023;28;19928;-33
2024/01/28 09:53:27;;;;;;;;;;;3.40;99.90;;;;;;5095397;28;19923;-33
2024/01/28 09:55:54;;;;;;;;;;;3.50;99.90;;;;;;5086960;28;19930;-32
2024/01/28 09:58:21;;;;;;;;;;;3.60;99.90;;;;;;5092192;28;20383;-32
2024/01/28 10:00:47;;;;;;;;;;;3.70;99.90;;;;;;5091942;28;19926;-32
2024/01/28 10:03:14;;;;;;;;;;;3.70;99.90;;;;;;5109907;28;19974;-32
2024/01/28 10:05:42;;;;;;;;;;;3.70;99.90;;;;;;5111045;28;19920;-32
2024/01/28 10:08:09;;;;;;;;;;;3.90;99.90;;;;;;5093252;28;19919;-33
2024/01/28 10:10:36;;;;;;;;;;;3.90;99.90;;;;;;5094192;28;19927;-37
2024/01/28 10:13:02;;;;;;;;;;;4.00;99.90;;;;;;5083707;28;19984;-31
2024/01/28 10:15:30;;;;;;;;;;;4.10;99.90;;;;;;5085413;28;19920;-31
2024/01/28 10:17:57;;;;;;;;;;;4.20;99.90;;;;;;5105772;28;19923;-32
2024/01/28 10:20:24;;;;;;;;;;;4.30;99.90;;;;;;5102446;28;20371;-31
2024/01/28 10:22:52;;;;;;;;;;;4.30;99.90;;;;;;5095590;28;20344;-32
2024/01/28 10:25:19;;;;;;;;;;;4.40;99.90;;;;;;5091957;28;19920;-32
2024/01/28 10:27:46;;;;;;;;;;;4.40;99.90;;;;;;5108888;28;19920;-32
2024/01/28 10:30:13;;;;;;;;;;;4.50;99.90;;;;;;5112477;28;20324;-31
2024/01/28 10:32:41;;;;;;;;;;;4.50;99.90;;;;;;5090343;28;20429;-34
2024/01/28 10:35:08;;;;;;;;;;;4.50;99.90;;;;;;5092426;28;19967;-31
2024/01/28 10:37:34;;;;;;;;;;;4.60;99.90;;;;;;5092797;28;19923;-32
2024/01/28 10:40:05;;;;;;;;;;;4.70;99.90;;;;;;5093474;28;19989;-31
2024/01/28 10:42:32;;;;;;;;;;;4.70;99.90;;;;;;5095281;28;19966;-31
2024/01/28 10:44:59;;;;;;;;;;;4.80;99.90;;;;;;5083966;28;19970;-33
2024/01/28 10:47:25;;;;;;;;;;;4.80;99.90;;;;;;5082862;28;19971;-31
2024/01/28 10:49:52;;;;;;;;;;;4.90;99.90;;;;;;5087749;28;19974;-31
2024/01/28 10:52:21;;;;;;;;;;;4.90;99.90;;;;;;5087338;28;19924;-30
2024/01/28 10:54:48;;;;;;;;;;;5.00;99.90;;;;;;5074980;28;19930;-32
2024/01/28 10:57:16;;;;;;;;;;;5.00;99.90;;;;;;5074918;28;19954;-34
2024/01/28 10:59:42;;;;;;;;;;;5.20;99.90;;;;;;5090646;28;19924;-33
2024/01/28 11:02:09;;;;;;;;;;;5.20;99.90;;;;;;5096331;28;19920;-31
2024/01/28 11:04:36;;;;;;;;;;;5.30;99.90;;;;;;5079299;28;19973;-31
2024/01/28 11:07:03;;;;;;;;;;;5.40;99.90;;;;;;5092016;28;19923;-30
2024/01/28 11:09:29;;;;;;;;;;;5.40;99.90;;;;;;5111979;28;19920;-33
2024/01/28 11:11:56;;;;;;;;;;;5.50;99.90;;;;;;5082864;28;19993;-31
2024/01/28 11:14:25;;;;;;;;;;;5.50;99.90;;;;;;5102755;28;19919;-31
2024/01/28 11:16:51;;;;;;;;;;;5.60;99.90;;;;;;5104971;28;19920;-31
2024/01/28 11:19:18;;;;;;;;;;;5.70;99.90;;;;;;5088579;28;19974;-33
2024/01/28 11:21:50;;;;;;;;;;;5.80;99.90;;;;;;5082378;28;19920;-31
2024/01/28 11:24:17;;;;;;;;;;;5.80;99.90;;;;;;5108895;28;20436;-31
2024/01/28 11:26:44;;;;;;;;;;;5.80;99.90;;;;;;5090806;28;19973;-31
2024/01/28 11:29:11;;;;;;;;;;;5.90;99.90;;;;;;5085371;28;19946;-31
2024/01/28 11:31:41;;;;;;;;;;;6.00;99.90;;;;;;5090267;28;20292;-31
2024/01/28 11:34:13;;;;;;;;;;;6.00;99.90;;;;;;5093389;28;19924;-32
2024/01/28 11:36:39;;;;;;;;;;;6.10;99.90;;;;;;5094279;28;19924;-31
2024/01/28 11:39:06;;;;;;;;;;;6.20;99.90;;;;;;5088048;28;19985;-31
2024/01/28 11:41:37;;;;;;;;;;;6.20;99.90;;;;;;5105196;28;19967;-34
2024/01/28 11:44:04;;;;;;;;;;;6.30;99.90;;;;;;5075453;28;19920;-31
2024/01/28 11:46:31;;;;;;;;;;;6.40;99.90;;;;;;5089096;28;20007;-33
2024/01/28 11:48:59;;;;;;;;;;;6.50;99.90;;;;;;5104054;28;19969;-31
2024/01/28 11:51:27;;;;;;;;;;;6.50;99.90;;;;;;5099325;28;19928;-32
2024/01/28 11:53:54;;;;;;;;;;;6.60;99.90;;;;;;5080648;28;19935;-31
2024/01/28 11:56:21;;;;;;;;;;;6.60;99.90;;;;;;5114617;28;20329;-31
2024/01/28 11:58:48;;;;;;;;;;;6.60;99.90;;;;;;5094504;28;19924;-32
2024/01/28 12:01:14;;;;;;;;;;;6.70;99.90;;;;;;5114539;28;19931;-32
2024/01/28 12:03:41;;;;;;;;;;;6.70;99.90;;;;;;5116447;28;19920;-31
2024/01/28 12:06:09;;;;;;;;;;;6.80;99.90;;;;;;5095644;28;19927;-30
2024/01/28 12:08:39;;;;;;;;;;;6.90;99.90;;;;;;5099569;28;19965;-31
2024/01/28 12:11:06;;;;;;;;;;;7.00;99.90;;;;;;5093522;28;19924;-32
2024/01/28 12:13:32;;;;;;;;;;;7.00;99.90;;;;;;5086298;28;19920;-31
2024/01/28 12:15:59;;;;;;;;;;;7.00;99.90;;;;;;5097467;28;19977;-31
2024/01/28 12:18:30;;;;;;;;;;;7.00;99.90;;;;;;5092678;28;19973;-31
2024/01/28 12:20:56;;;;;;;;;;;6.90;99.90;;;;;;5111531;28;19999;-33
2024/01/28 12:23:24;;;;;;;;;;;6.90;99.90;;;;;;5104356;28;19966;-31
2024/01/28 12:25:51;;;;;;;;;;;6.90;99.90;;;;;;5097153;28;19950;-32
2024/01/28 12:28:18;;;;;;;;;;;7.00;99.90;;;;;;5114836;28;19930;-31
2024/01/28 12:30:44;;;;;;;;;;;7.10;99.90;;;;;;5091395;28;19972;-33
2024/01/28 12:33:11;;;;;;;;;;;7.10;99.90;;;;;;5087914;28;20305;-32
2024/01/28 12:35:37;;;;;;;;;;;7.20;99.90;;;;;;5095750;28;19924;-31
2024/01/28 12:38:04;;;;;;;;;;;7.20;99.90;;;;;;5095557;28;19981;-33
2024/01/28 12:40:32;;;;;;;;;;;7.30;99.90;;;;;;5086447;28;19928;-32
2024/01/28 12:42:59;;;;;;;;;;;7.30;99.90;;;;;;5083883;28;19996;-32
2024/01/28 12:45:26;;;;;;;;;;;7.30;99.90;;;;;;5088525;28;19967;-32
2024/01/28 12:47:52;;;;;;;;;;;7.30;99.90;;;;;;5103583;28;19997;-31
2024/01/28 12:50:20;;;;;;;;;;;7.30;99.90;;;;;;5092212;28;19920;-32
2024/01/28 12:52:46;;;;;;;;;;;7.40;99.90;;;;;;5095905;28;19919;-31
2024/01/28 12:55:13;;;;;;;;;;;7.50;99.90;;;;;;5115554;28;20353;-31
2024/01/28 12:57:42;;;;;;;;;;;7.50;99.90;;;;;;5093402;28;20409;-31
2024/01/28 13:00:10;;;;;;;;;;;7.60;99.90;;;;;;5093072;28;19946;-33
2024/01/28 13:02:37;;;;;;;;;;;7.60;99.90;;;;;;5110073;28;19934;-31
2024/01/28 13:05:04;;;;;;;;;;;7.60;99.90;;;;;;5094540;28;19923;-33
2024/01/28 13:07:31;;;;;;;;;;;7.60;99.90;;;;;;5109715;28;19975;-31
2024/01/28 13:09:58;;;;;;;;;;;7.60;99.90;;;;;;5094819;28;20312;-32
2024/01/28 13:12:26;;;;;;;;;;;7.70;99.90;;;;;;5101903;28;20283;-35
2024/01/28 13:14:55;;;;;;;;;;;7.70;99.90;;;;;;5092498;28;19927;-31
2024/01/28 13:17:21;;;;;;;;;;;7.80;99.90;;;;;;5110693;28;19930;-31
2024/01/28 13:19:53;;;;;;;;;;;7.80;99.90;;;;;;5096793;28;19943;-32
2024/01/28 13:22:20;;;;;;;;;;;7.80;99.90;;;;;;5090694;28;19960;-33
2024/01/28 13:24:51;;;;;;;;;;;7.90;99.90;;;;;;5095911;28;19972;-32
2024/01/28 13:27:18;;;;;;;;;;;7.90;99.90;;;;;;5084075;28;20007;-32
2024/01/28 13:29:45;;;;;;;;;;;7.90;99.90;;;;;;5084678;28;20002;-33
2024/01/28 13:32:13;;;;;;;;;;;8.00;99.90;;;;;;5102631;28;20371;-32
2024/01/28 13:34:39;;;;;;;;;;;8.00;99.90;;;;;;5075783;28;20432;-33
2024/01/28 13:37:06;;;;;;;;;;;8.10;99.90;;;;;;5091389;28;20290;-34
2024/01/28 13:39:34;;;;;;;;;;;8.10;99.90;;;;;;5093218;28;20266;-33
2024/01/28 13:42:01;;;;;;;;;;;8.10;99.90;;;;;;5086755;28;20011;-32
2024/01/28 13:44:27;;;;;;;;;;;8.20;99.90;;;;;;5090408;28;19980;-33
2024/01/28 13:46:57;;;;;;;;;;;8.20;99.90;;;;;;5113358;28;20317;-32
2024/01/28 13:49:25;;;;;;;;;;;8.20;99.90;;;;;;5090938;28;19926;-32
2024/01/28 13:51:52;;;;;;;;;;;8.20;99.90;;;;;;5090252;28;19923;-34
2024/01/28 13:54:19;;;;;;;;;;;8.30;99.90;;;;;;5093148;28;19924;-34
2024/01/28 13:56:45;;;;;;;;;;;8.30;99.90;;;;;;5111154;28;20631;-33
2024/01/28 13:59:12;;;;;;;;;;;8.30;99.90;;;;;;5106336;28;19975;-34
2024/01/28 14:01:39;;;;;;;;;;;8.40;99.90;;;;;;5092369;28;20386;-33
2024/01/28 14:04:05;;;;;;;;;;;8.30;99.90;;;;;;5095789;28;19920;-32
2024/01/28 14:06:33;;;;;;;;;;;8.30;99.90;;;;;;5093113;28;19920;-33
2024/01/28 14:09:00;;;;;;;;;;;8.40;99.90;;;;;;5091006;28;19972;-32
2024/01/28 14:11:26;;;;;;;;;;;8.30;99.90;;;;;;5081196;28;19920;-32
2024/01/28 14:13:53;;;;;;;;;;;8.30;99.90;;;;;;5078439;28;20032;-32
2024/01/28 14:16:20;;;;;;;;;;;8.30;99.90;;;;;;5089279;28;20386;-32
2024/01/28 14:18:46;;;;;;;;;;;8.30;99.90;;;;;;5091610;28;20373;-33
2024/01/28 14:21:25;;;;;;;;;;;8.30;99.90;;;;;;5103751;28;19927;-30
2024/01/28 14:23:53;;;;;;;;;;;8.30;99.90;;;;;;5107108;28;20011;-32
2024/01/28 14:26:19;;;;;;;;;;;8.20;99.90;;;;;;5084266;28;19924;-32
2024/01/28 14:28:46;;;;;;;;;;;8.20;99.90;;;;;;5106486;28;20019;-33
2024/01/28 14:31:13;;;;;;;;;;;8.20;99.90;;;;;;5111640;28;19938;-32
2024/01/28 14:33:40;;;;;;;;;;;8.20;99.90;;;;;;5103971;28;19964;-32
2024/01/28 14:36:06;;;;;;;;;;;8.20;99.90;;;;;;5090202;28;19967;-32